sensor_id;sensor_type;location;lat;lon;timestamp;temperature;humidity
63325;SHT31;49451;52.390;13.028;2022-12-20T04:01:49;5.11;88.76
63325;SHT31;49451;52.390;13.028;2022-12-20T04:04:15;5.05;89.02
63325;SHT31;49451;52.390;13.028;2022-12-20T04:06:40;5.09;88.75
63325;SHT31;49451;52.390;13.028;2022-12-20T04:09:06;5.06;88.80
63325;SHT31;49451;52.390;13.028;2022-12-20T04:11:31;5.11;88.83
63325;SHT31;49451;52.390;13.028;2022-12-20T04:13:59;5.09;88.89
63325;SHT31;49451;52.390;13.028;2022-12-20T04:16:27;5.09;88.97
63325;SHT31;49451;52.390;13.028;2022-12-20T04:18:52;5.09;88.80
63325;SHT31;49451;52.390;13.028;2022-12-20T04:21:23;5.08;88.94
63325;SHT31;49451;52.390;13.028;2022-12-20T04:23:49;5.06;88.87
63325;SHT31;49451;52.390;13.028;2022-12-20T04:26:14;5.08;88.81
63325;SHT31;49451;52.390;13.028;2022-12-20T04:28:39;5.02;88.98
63325;SHT31;49451;52.390;13.028;2022-12-20T04:31:05;4.99;88.99
63325;SHT31;49451;52.390;13.028;2022-12-20T04:33:31;5.02;88.78
63325;SHT31;49451;52.390;13.028;2022-12-20T04:35:56;4.92;88.92
63325;SHT31;49451;52.390;13.028;2022-12-20T04:38:22;4.92;89.16
63325;SHT31;49451;52.390;13.028;2022-12-20T04:40:48;4.85;89.38
63325;SHT31;49451;52.390;13.028;2022-12-20T04:43:15;4.88;89.15
63325;SHT31;49451;52.390;13.028;2022-12-20T04:45:40;4.93;88.89
63325;SHT31;49451;52.390;13.028;2022-12-20T04:48:06;4.95;88.82
63325;SHT31;49451;52.390;13.028;2022-12-20T04:50:31;4.91;88.92
63325;SHT31;49451;52.390;13.028;2022-12-20T04:52:57;4.93;88.86
63325;SHT31;49451;52.390;13.028;2022-12-20T04:55:40;4.96;88.75
63325;SHT31;49451;52.390;13.028;2022-12-20T04:58:06;4.97;88.71
63325;SHT31;49451;52.390;13.028;2022-12-20T05:00:32;4.95;88.70
63325;SHT31;49451;52.390;13.028;2022-12-20T05:02:58;4.97;88.83
63325;SHT31;49451;52.390;13.028;2022-12-20T05:05:25;4.93;88.90
63325;SHT31;49451;52.390;13.028;2022-12-20T05:07:50;4.89;89.11
63325;SHT31;49451;52.390;13.028;2022-12-20T05:10:16;4.89;89.07
63325;SHT31;49451;52.390;13.028;2022-12-20T05:12:41;4.95;89.01
63325;SHT31;49451;52.390;13.028;2022-12-20T05:15:07;4.93;88.85
63325;SHT31;49451;52.390;13.028;2022-12-20T05:17:33;4.95;88.92
63325;SHT31;49451;52.390;13.028;2022-12-20T05:19:59;4.95;88.83
63325;SHT31;49451;52.390;13.028;2022-12-20T05:22:24;4.96;88.88
63325;SHT31;49451;52.390;13.028;2022-12-20T05:25:10;4.99;88.83
63325;SHT31;49451;52.390;13.028;2022-12-20T05:27:54;5.06;88.58
63325;SHT31;49451;52.390;13.028;2022-12-20T05:30:19;5.08;88.68
63325;SHT31;49451;52.390;13.028;2022-12-20T05:32:45;5.15;88.44
63325;SHT31;49451;52.390;13.028;2022-12-20T05:35:10;5.18;88.27
63325;SHT31;49451;52.390;13.028;2022-12-20T05:37:36;5.16;88.38
63325;SHT31;49451;52.390;13.028;2022-12-20T05:40:01;5.19;88.33
63325;SHT31;49451;52.390;13.028;2022-12-20T05:42:26;5.18;88.43
63325;SHT31;49451;52.390;13.028;2022-12-20T05:44:52;5.20;88.43
63325;SHT31;49451;52.390;13.028;2022-12-20T05:47:17;5.20;88.56
63325;SHT31;49451;52.390;13.028;2022-12-20T05:49:42;5.29;88.39
63325;SHT31;49451;52.390;13.028;2022-12-20T05:52:08;5.36;88.24
63325;SHT31;49451;52.390;13.028;2022-12-20T05:54:33;5.36;88.30
63325;SHT31;49451;52.390;13.028;2022-12-20T05:56:58;5.40;88.39
63325;SHT31;49451;52.390;13.028;2022-12-20T05:59:24;5.44;88.61
63325;SHT31;49451;52.390;13.028;2022-12-20T06:01:49;5.39;88.71
63325;SHT31;49451;52.390;13.028;2022-12-20T06:04:14;5.39;88.73
63325;SHT31;49451;52.390;13.028;2022-12-20T06:06:41;5.40;88.60
63325;SHT31;49451;52.390;13.028;2022-12-20T06:09:06;5.43;88.63
63325;SHT31;49451;52.390;13.028;2022-12-20T06:11:32;5.39;89.10
63325;SHT31;49451;52.390;13.028;2022-12-20T06:13:57;5.33;89.34
63325;SHT31;49451;52.390;13.028;2022-12-20T06:16:23;5.39;89.34
63325;SHT31;49451;52.390;13.028;2022-12-20T06:18:49;5.48;88.84
63325;SHT31;49451;52.390;13.028;2022-12-20T06:21:15;5.48;89.09
63325;SHT31;49451;52.390;13.028;2022-12-20T06:23:41;5.58;88.85
63325;SHT31;49451;52.390;13.028;2022-12-20T06:26:06;5.55;88.90
63325;SHT31;49451;52.390;13.028;2022-12-20T06:28:34;5.54;88.76
63325;SHT31;49451;52.390;13.028;2022-12-20T06:31:00;5.54;89.00
63325;SHT31;49451;52.390;13.028;2022-12-20T06:33:25;5.61;88.88
63325;SHT31;49451;52.390;13.028;2022-12-20T06:35:51;5.72;88.79
63325;SHT31;49451;52.390;13.028;2022-12-20T06:38:16;5.65;88.97
63325;SHT31;49451;52.390;13.028;2022-12-20T06:40:42;5.62;89.15
63325;SHT31;49451;52.390;13.028;2022-12-20T06:43:08;5.65;89.25
63325;SHT31;49451;52.390;13.028;2022-12-20T06:45:33;5.60;89.46
63325;SHT31;49451;52.390;13.028;2022-12-20T06:47:58;5.65;89.48
63325;SHT31;49451;52.390;13.028;2022-12-20T06:50:24;5.71;89.30
63325;SHT31;49451;52.390;13.028;2022-12-20T06:52:49;5.71;89.35
63325;SHT31;49451;52.390;13.028;2022-12-20T06:55:15;5.67;89.52
63325;SHT31;49451;52.390;13.028;2022-12-20T06:57:40;5.74;89.59
63325;SHT31;49451;52.390;13.028;2022-12-20T07:00:06;5.82;89.52
63325;SHT31;49451;52.390;13.028;2022-12-20T07:02:33;5.78;90.01
63325;SHT31;49451;52.390;13.028;2022-12-20T07:04:58;5.82;89.83
63325;SHT31;49451;52.390;13.028;2022-12-20T07:07:24;5.84;90.12
63325;SHT31;49451;52.390;13.028;2022-12-20T07:09:49;5.79;90.14
63325;SHT31;49451;52.390;13.028;2022-12-20T07:12:15;5.81;90.43
63325;SHT31;49451;52.390;13.028;2022-12-20T07:14:40;5.79;90.51
63325;SHT31;49451;52.390;13.028;2022-12-20T07:17:06;5.91;90.34
63325;SHT31;49451;52.390;13.028;2022-12-20T07:19:32;5.89;90.58
63325;SHT31;49451;52.390;13.028;2022-12-20T07:21:57;5.87;90.83
63325;SHT31;49451;52.390;13.028;2022-12-20T07:24:23;5.89;90.79
63325;SHT31;49451;52.390;13.028;2022-12-20T07:26:49;5.88;91.49
63325;SHT31;49451;52.390;13.028;2022-12-20T07:29:14;5.89;91.72
63325;SHT31;49451;52.390;13.028;2022-12-20T07:31:39;5.81;91.77
63325;SHT31;49451;52.390;13.028;2022-12-20T07:34:05;5.79;92.11
63325;SHT31;49451;52.390;13.028;2022-12-20T07:36:30;5.89;92.35
63325;SHT31;49451;52.390;13.028;2022-12-20T07:38:57;5.82;92.48
63325;SHT31;49451;52.390;13.028;2022-12-20T07:41:22;5.78;92.85
63325;SHT31;49451;52.390;13.028;2022-12-20T07:43:49;5.77;93.41
63325;SHT31;49451;52.390;13.028;2022-12-20T07:46:15;5.74;93.34
63325;SHT31;49451;52.390;13.028;2022-12-20T07:48:41;5.82;93.50
63325;SHT31;49451;52.390;13.028;2022-12-20T07:51:22;5.79;93.72
63325;SHT31;49451;52.390;13.028;2022-12-20T07:53:55;5.75;93.76
63325;SHT31;49451;52.390;13.028;2022-12-20T07:56:22;5.64;94.46
63325;SHT31;49451;52.390;13.028;2022-12-20T07:58:49;5.62;94.66
63325;SHT31;49451;52.390;13.028;2022-12-20T08:01:16;5.62;95.11
63325;SHT31;49451;52.390;13.028;2022-12-20T08:03:46;5.64;95.10
63325;SHT31;49451;52.390;13.028;2022-12-20T08:06:12;5.62;95.31
63325;SHT31;49451;52.390;13.028;2022-12-20T08:08:44;5.65;95.50
63325;SHT31;49451;52.390;13.028;2022-12-20T08:11:11;5.50;95.97
63325;SHT31;49451;52.390;13.028;2022-12-20T08:13:37;5.54;96.02
63325;SHT31;49451;52.390;13.028;2022-12-20T08:16:15;5.57;96.04
63325;SHT31;49451;52.390;13.028;2022-12-20T08:18:46;5.51;96.34
63325;SHT31;49451;52.390;13.028;2022-12-20T08:21:12;5.60;96.45
63325;SHT31;49451;52.390;13.028;2022-12-20T08:23:39;5.67;96.28
63325;SHT31;49451;52.390;13.028;2022-12-20T08:26:05;5.75;96.00
63325;SHT31;49451;52.390;13.028;2022-12-20T08:28:31;5.72;96.03
63325;SHT31;49451;52.390;13.028;2022-12-20T08:31:04;5.75;96.20
63325;SHT31;49451;52.390;13.028;2022-12-20T08:33:31;5.82;96.05
63325;SHT31;49451;52.390;13.028;2022-12-20T08:36:03;5.85;95.90
63325;SHT31;49451;52.390;13.028;2022-12-20T08:38:29;5.95;95.76
63325;SHT31;49451;52.390;13.028;2022-12-20T08:41:00;5.89;95.82
63325;SHT31;49451;52.390;13.028;2022-12-20T08:43:28;5.95;95.84
63325;SHT31;49451;52.390;13.028;2022-12-20T08:45:54;5.96;95.41
63325;SHT31;49451;52.390;13.028;2022-12-20T08:48:20;6.10;95.17
63325;SHT31;49451;52.390;13.028;2022-12-20T08:50:46;6.09;94.87
63325;SHT31;49451;52.390;13.028;2022-12-20T08:53:11;6.23;94.95
63325;SHT31;49451;52.390;13.028;2022-12-20T08:55:36;6.32;94.79
63325;SHT31;49451;52.390;13.028;2022-12-20T08:58:02;6.25;94.74
63325;SHT31;49451;52.390;13.028;2022-12-20T09:00:27;6.26;94.83
63325;SHT31;49451;52.390;13.028;2022-12-20T09:02:59;6.36;94.48
63325;SHT31;49451;52.390;13.028;2022-12-20T09:06:06;6.36;94.32
63325;SHT31;49451;52.390;13.028;2022-12-20T09:08:45;6.57;93.63
63325;SHT31;49451;52.390;13.028;2022-12-20T09:11:19;6.60;93.67
63325;SHT31;49451;52.390;13.028;2022-12-20T09:13:47;6.51;93.89
63325;SHT31;49451;52.390;13.028;2022-12-20T09:17:00;6.68;93.63
63325;SHT31;49451;52.390;13.028;2022-12-20T09:20:08;6.70;93.00
63325;SHT31;49451;52.390;13.028;2022-12-20T09:22:34;6.67;92.92
63325;SHT31;49451;52.390;13.028;2022-12-20T09:25:02;6.68;93.24
63325;SHT31;49451;52.390;13.028;2022-12-20T09:27:27;6.84;92.69
63325;SHT31;49451;52.390;13.028;2022-12-20T09:29:53;6.98;92.22
63325;SHT31;49451;52.390;13.028;2022-12-20T09:32:18;6.98;91.74
63325;SHT31;49451;52.390;13.028;2022-12-20T09:34:43;6.93;91.93
63325;SHT31;49451;52.390;13.028;2022-12-20T09:37:09;6.91;92.04
63325;SHT31;49451;52.390;13.028;2022-12-20T09:39:35;7.01;91.55
63325;SHT31;49451;52.390;13.028;2022-12-20T09:42:06;7.03;91.35
63325;SHT31;49451;52.390;13.028;2022-12-20T09:44:39;7.18;90.94
63325;SHT31;49451;52.390;13.028;2022-12-20T09:47:17;7.26;90.88
63325;SHT31;49451;52.390;13.028;2022-12-20T09:49:46;7.18;90.91
63325;SHT31;49451;52.390;13.028;2022-12-20T09:57:58;7.20;91.04
63325;SHT31;49451;52.390;13.028;2022-12-20T10:00:27;7.30;90.35
63325;SHT31;49451;52.390;13.028;2022-12-20T10:02:54;7.26;90.52
63325;SHT31;49451;52.390;13.028;2022-12-20T10:08:07;7.30;90.08
63325;SHT31;49451;52.390;13.028;2022-12-20T10:16:37;7.53;89.79
63325;SHT31;49451;52.390;13.028;2022-12-20T10:19:13;7.64;89.07
63325;SHT31;49451;52.390;13.028;2022-12-20T10:24:29;7.74;88.69
63325;SHT31;49451;52.390;13.028;2022-12-20T10:26:56;7.70;88.87
63325;SHT31;49451;52.390;13.028;2022-12-20T10:29:24;7.82;88.52
63325;SHT31;49451;52.390;13.028;2022-12-20T10:31:53;7.95;88.09
63325;SHT31;49451;52.390;13.028;2022-12-20T10:34:23;8.01;87.97
63325;SHT31;49451;52.390;13.028;2022-12-20T10:37:09;7.87;88.19
63325;SHT31;49451;52.390;13.028;2022-12-20T10:39:47;7.96;88.38
63325;SHT31;49451;52.390;13.028;2022-12-20T10:44:58;7.95;87.30
63325;SHT31;49451;52.390;13.028;2022-12-20T10:47:40;8.10;86.91
63325;SHT31;49451;52.390;13.028;2022-12-20T10:50:16;8.10;86.90
63325;SHT31;49451;52.390;13.028;2022-12-20T10:52:42;8.17;86.47
63325;SHT31;49451;52.390;13.028;2022-12-20T10:55:35;8.06;86.68
63325;SHT31;49451;52.390;13.028;2022-12-20T11:00:37;7.96;87.00
63325;SHT31;49451;52.390;13.028;2022-12-20T11:05:36;8.13;86.94
63325;SHT31;49451;52.390;13.028;2022-12-20T11:08:12;8.13;86.91
63325;SHT31;49451;52.390;13.028;2022-12-20T11:10:39;8.17;86.91
63325;SHT31;49451;52.390;13.028;2022-12-20T11:13:05;8.17;86.73
63325;SHT31;49451;52.390;13.028;2022-12-20T11:15:35;8.17;86.57
63325;SHT31;49451;52.390;13.028;2022-12-20T11:18:12;8.19;86.23
63325;SHT31;49451;52.390;13.028;2022-12-20T11:24:54;8.59;84.99
63325;SHT31;49451;52.390;13.028;2022-12-20T11:29:43;8.56;84.87
63325;SHT31;49451;52.390;13.028;2022-12-20T11:37:25;8.37;86.01
63325;SHT31;49451;52.390;13.028;2022-12-20T11:51:01;8.68;85.18
63325;SHT31;49451;52.390;13.028;2022-12-20T11:53:53;8.97;83.75
63325;SHT31;49451;52.390;13.028;2022-12-20T11:56:53;9.42;82.29
63325;SHT31;49451;52.390;13.028;2022-12-20T11:59:17;9.25;83.11
63325;SHT31;49451;52.390;13.028;2022-12-20T12:02:12;8.68;85.08
63325;SHT31;49451;52.390;13.028;2022-12-20T12:07:28;8.51;85.98
63325;SHT31;49451;52.390;13.028;2022-12-20T12:15:54;8.44;86.44
63325;SHT31;49451;52.390;13.028;2022-12-20T12:18:39;8.30;87.01
63325;SHT31;49451;52.390;13.028;2022-12-20T12:21:36;8.33;87.14
63325;SHT31;49451;52.390;13.028;2022-12-20T12:24:22;8.37;87.41
63325;SHT31;49451;52.390;13.028;2022-12-20T12:26:49;8.46;87.20
63325;SHT31;49451;52.390;13.028;2022-12-20T12:29:17;8.43;87.30
63325;SHT31;49451;52.390;13.028;2022-12-20T12:31:57;8.51;87.30
63325;SHT31;49451;52.390;13.028;2022-12-20T12:37:38;8.47;87.42
63325;SHT31;49451;52.390;13.028;2022-12-20T12:40:32;8.50;87.35
63325;SHT31;49451;52.390;13.028;2022-12-20T12:45:37;8.57;87.03
63325;SHT31;49451;52.390;13.028;2022-12-20T12:50:36;8.64;86.58
63325;SHT31;49451;52.390;13.028;2022-12-20T12:53:19;8.65;86.61
63325;SHT31;49451;52.390;13.028;2022-12-20T12:55:47;8.74;86.18
63325;SHT31;49451;52.390;13.028;2022-12-20T12:58:40;8.60;86.32
63325;SHT31;49451;52.390;13.028;2022-12-20T13:01:10;8.59;86.21
63325;SHT31;49451;52.390;13.028;2022-12-20T13:11:51;8.42;86.27
63325;SHT31;49451;52.390;13.028;2022-12-20T13:16:46;8.44;85.62
63325;SHT31;49451;52.390;13.028;2022-12-20T13:19:33;8.39;85.77
63325;SHT31;49451;52.390;13.028;2022-12-20T13:27:13;8.42;85.08
63325;SHT31;49451;52.390;13.028;2022-12-20T13:37:55;8.23;85.00
63325;SHT31;49451;52.390;13.028;2022-12-20T13:40:35;8.23;84.93
63325;SHT31;49451;52.390;13.028;2022-12-20T13:45:56;8.25;84.55
63325;SHT31;49451;52.390;13.028;2022-12-20T13:48:30;8.22;84.28
63325;SHT31;49451;52.390;13.028;2022-12-20T13:51:00;8.13;84.83
63325;SHT31;49451;52.390;13.028;2022-12-20T13:53:27;8.21;84.24
63325;SHT31;49451;52.390;13.028;2022-12-20T13:55:53;8.22;84.18
63325;SHT31;49451;52.390;13.028;2022-12-20T13:58:31;8.10;84.22
63325;SHT31;49451;52.390;13.028;2022-12-20T14:01:10;8.07;84.14
63325;SHT31;49451;52.390;13.028;2022-12-20T14:03:43;8.12;83.99
63325;SHT31;49451;52.390;13.028;2022-12-20T14:06:11;8.16;83.78
63325;SHT31;49451;52.390;13.028;2022-12-20T14:08:41;8.12;84.00
63325;SHT31;49451;52.390;13.028;2022-12-20T14:11:10;8.21;83.43
63325;SHT31;49451;52.390;13.028;2022-12-20T14:13:36;8.06;83.95
63325;SHT31;49451;52.390;13.028;2022-12-20T14:16:16;8.12;83.84
63325;SHT31;49451;52.390;13.028;2022-12-20T14:18:47;8.12;84.04
63325;SHT31;49451;52.390;13.028;2022-12-20T14:21:15;8.10;83.66
63325;SHT31;49451;52.390;13.028;2022-12-20T14:23:44;8.13;83.69
63325;SHT31;49451;52.390;13.028;2022-12-20T14:26:54;8.12;83.76
63325;SHT31;49451;52.390;13.028;2022-12-20T14:29:01;7.95;84.01
63325;SHT31;49451;52.390;13.028;2022-12-20T14:36:29;7.96;83.97
63325;SHT31;49451;52.390;13.028;2022-12-20T14:38:56;7.96;84.15
63325;SHT31;49451;52.390;13.028;2022-12-20T14:41:39;7.92;83.96
63325;SHT31;49451;52.390;13.028;2022-12-20T14:44:17;7.85;84.19
63325;SHT31;49451;52.390;13.028;2022-12-20T14:47:03;7.88;84.34
63325;SHT31;49451;52.390;13.028;2022-12-20T14:49:34;7.81;84.47
63325;SHT31;49451;52.390;13.028;2022-12-20T14:52:13;7.79;84.38
63325;SHT31;49451;52.390;13.028;2022-12-20T14:54:59;7.68;84.63
63325;SHT31;49451;52.390;13.028;2022-12-20T14:57:29;7.78;84.49
63325;SHT31;49451;52.390;13.028;2022-12-20T15:03:13;7.71;84.61
63325;SHT31;49451;52.390;13.028;2022-12-20T15:05:47;7.66;84.90
63325;SHT31;49451;52.390;13.028;2022-12-20T15:08:20;7.60;85.10
63325;SHT31;49451;52.390;13.028;2022-12-20T15:13:19;7.61;84.83
63325;SHT31;49451;52.390;13.028;2022-12-20T15:15:45;7.60;85.00
63325;SHT31;49451;52.390;13.028;2022-12-20T15:18:12;7.54;85.15
63325;SHT31;49451;52.390;13.028;2022-12-20T15:21:12;7.48;85.48
63325;SHT31;49451;52.390;13.028;2022-12-20T15:24:18;7.51;85.49
63325;SHT31;49451;52.390;13.028;2022-12-20T15:27:13;7.47;85.54
63325;SHT31;49451;52.390;13.028;2022-12-20T15:29:56;7.47;85.80
63325;SHT31;49451;52.390;13.028;2022-12-20T15:32:51;7.44;85.94
63325;SHT31;49451;52.390;13.028;2022-12-20T15:35:16;7.44;85.98
63325;SHT31;49451;52.390;13.028;2022-12-20T15:37:41;7.42;86.01
63325;SHT31;49451;52.390;13.028;2022-12-20T15:40:23;7.40;85.95
63325;SHT31;49451;52.390;13.028;2022-12-20T15:42:50;7.39;85.84
63325;SHT31;49451;52.390;13.028;2022-12-20T15:45:15;7.33;86.11
63325;SHT31;49451;52.390;13.028;2022-12-20T15:47:41;7.37;85.72
63325;SHT31;49451;52.390;13.028;2022-12-20T15:50:07;7.39;85.56
63325;SHT31;49451;52.390;13.028;2022-12-20T15:52:32;7.31;85.42
63325;SHT31;49451;52.390;13.028;2022-12-20T15:54:58;7.40;85.27
63325;SHT31;49451;52.390;13.028;2022-12-20T15:57:23;7.31;85.37
63325;SHT31;49451;52.390;13.028;2022-12-20T15:59:48;7.31;85.27
63325;SHT31;49451;52.390;13.028;2022-12-20T16:02:26;7.27;85.35
63325;SHT31;49451;52.390;13.028;2022-12-20T16:04:52;7.33;85.42
63325;SHT31;49451;52.390;13.028;2022-12-20T16:07:18;7.30;85.38
63325;SHT31;49451;52.390;13.028;2022-12-20T16:09:43;7.36;85.41
63325;SHT31;49451;52.390;13.028;2022-12-20T16:12:13;7.22;85.68
63325;SHT31;49451;52.390;13.028;2022-12-20T16:14:40;7.18;85.93
63325;SHT31;49451;52.390;13.028;2022-12-20T16:17:12;7.13;86.22
63325;SHT31;49451;52.390;13.028;2022-12-20T16:19:38;7.08;86.54
63325;SHT31;49451;52.390;13.028;2022-12-20T16:22:04;7.09;86.26
63325;SHT31;49451;52.390;13.028;2022-12-20T16:24:29;7.08;86.62
63325;SHT31;49451;52.390;13.028;2022-12-20T16:26:54;7.02;86.52
63325;SHT31;49451;52.390;13.028;2022-12-20T16:29:20;6.96;86.63
63325;SHT31;49451;52.390;13.028;2022-12-20T16:31:49;6.91;87.00
63325;SHT31;49451;52.390;13.028;2022-12-20T16:34:16;6.85;87.20
63325;SHT31;49451;52.390;13.028;2022-12-20T16:36:42;6.81;87.35
63325;SHT31;49451;52.390;13.028;2022-12-20T16:39:08;6.91;87.08
63325;SHT31;49451;52.390;13.028;2022-12-20T16:41:35;6.95;86.59
63325;SHT31;49451;52.390;13.028;2022-12-20T16:44:01;6.85;86.79
63325;SHT31;49451;52.390;13.028;2022-12-20T16:46:29;6.85;86.70
63325;SHT31;49451;52.390;13.028;2022-12-20T16:48:56;6.81;86.51
63325;SHT31;49451;52.390;13.028;2022-12-20T16:51:30;6.81;86.52
63325;SHT31;49451;52.390;13.028;2022-12-20T16:56:22;6.82;85.92
63325;SHT31;49451;52.390;13.028;2022-12-20T16:58:47;6.88;85.77
63325;SHT31;49451;52.390;13.028;2022-12-20T17:01:19;6.92;85.68
63325;SHT31;49451;52.390;13.028;2022-12-20T17:03:47;6.98;85.52
63325;SHT31;49451;52.390;13.028;2022-12-20T17:06:14;7.08;85.01
63325;SHT31;49451;52.390;13.028;2022-12-20T17:08:41;7.15;84.50
63325;SHT31;49451;52.390;13.028;2022-12-20T17:11:18;7.19;84.29
63325;SHT31;49451;52.390;13.028;2022-12-20T17:13:45;7.27;83.77
63325;SHT31;49451;52.390;13.028;2022-12-20T17:16:12;7.24;83.77
63325;SHT31;49451;52.390;13.028;2022-12-20T17:18:41;7.27;83.77
63325;SHT31;49451;52.390;13.028;2022-12-20T17:21:26;7.18;84.11
63325;SHT31;49451;52.390;13.028;2022-12-20T17:23:53;7.23;83.77
63325;SHT31;49451;52.390;13.028;2022-12-20T17:26:23;7.18;83.87
63325;SHT31;49451;52.390;13.028;2022-12-20T17:28:50;7.16;83.83
63325;SHT31;49451;52.390;13.028;2022-12-20T17:33:55;7.22;83.86
63325;SHT31;49451;52.390;13.028;2022-12-20T17:36:21;7.24;83.79
63325;SHT31;49451;52.390;13.028;2022-12-20T17:38:46;7.26;83.54
63325;SHT31;49451;52.390;13.028;2022-12-20T17:41:25;7.27;83.35
63325;SHT31;49451;52.390;13.028;2022-12-20T17:43:52;7.31;83.10
63325;SHT31;49451;52.390;13.028;2022-12-20T17:46:18;7.30;83.25
63325;SHT31;49451;52.390;13.028;2022-12-20T17:48:45;7.36;83.09
63325;SHT31;49451;52.390;13.028;2022-12-20T17:51:22;7.33;83.16
63325;SHT31;49451;52.390;13.028;2022-12-20T17:53:49;7.40;83.09
63325;SHT31;49451;52.390;13.028;2022-12-20T17:56:22;7.36;83.14
63325;SHT31;49451;52.390;13.028;2022-12-20T17:58:51;7.43;83.06
63325;SHT31;49451;52.390;13.028;2022-12-20T18:01:25;7.31;83.23
63325;SHT31;49451;52.390;13.028;2022-12-20T18:03:52;7.33;83.56
63325;SHT31;49451;52.390;13.028;2022-12-20T18:06:18;7.37;83.17
63325;SHT31;49451;52.390;13.028;2022-12-20T18:08:50;7.31;83.34
63325;SHT31;49451;52.390;13.028;2022-12-20T18:11:16;7.23;83.47
63325;SHT31;49451;52.390;13.028;2022-12-20T18:13:43;7.23;83.80
63325;SHT31;49451;52.390;13.028;2022-12-20T18:16:10;7.24;84.04
63325;SHT31;49451;52.390;13.028;2022-12-20T18:18:39;7.24;84.17
63325;SHT31;49451;52.390;13.028;2022-12-20T18:21:07;7.16;84.49
63325;SHT31;49451;52.390;13.028;2022-12-20T18:23:34;7.13;84.42
63325;SHT31;49451;52.390;13.028;2022-12-20T18:28:30;7.16;84.37
63325;SHT31;49451;52.390;13.028;2022-12-20T18:30:55;7.15;84.09
63325;SHT31;49451;52.390;13.028;2022-12-20T18:33:20;7.09;84.32
63325;SHT31;49451;52.390;13.028;2022-12-20T18:35:46;7.16;84.20
63325;SHT31;49451;52.390;13.028;2022-12-20T18:38:11;7.01;84.01
63325;SHT31;49451;52.390;13.028;2022-12-20T18:40:43;7.05;84.09
63325;SHT31;49451;52.390;13.028;2022-12-20T18:43:08;7.05;84.05
63325;SHT31;49451;52.390;13.028;2022-12-20T18:45:33;7.03;84.00
63325;SHT31;49451;52.390;13.028;2022-12-20T18:47:59;6.95;84.17
63325;SHT31;49451;52.390;13.028;2022-12-20T18:50:24;7.13;84.03
63325;SHT31;49451;52.390;13.028;2022-12-20T18:52:50;6.99;83.97
63325;SHT31;49451;52.390;13.028;2022-12-20T18:55:15;7.03;84.11
63325;SHT31;49451;52.390;13.028;2022-12-20T18:57:40;7.01;83.97
63325;SHT31;49451;52.390;13.028;2022-12-20T19:00:06;7.11;84.30
63325;SHT31;49451;52.390;13.028;2022-12-20T19:02:33;7.16;83.87
63325;SHT31;49451;52.390;13.028;2022-12-20T19:04:58;7.09;84.19
63325;SHT31;49451;52.390;13.028;2022-12-20T19:07:24;7.01;84.51
63325;SHT31;49451;52.390;13.028;2022-12-20T19:09:49;6.95;84.60
63325;SHT31;49451;52.390;13.028;2022-12-20T19:12:14;6.89;84.98
63325;SHT31;49451;52.390;13.028;2022-12-20T19:14:40;6.92;85.28
63325;SHT31;49451;52.390;13.028;2022-12-20T19:17:05;6.82;86.03
63325;SHT31;49451;52.390;13.028;2022-12-20T19:19:31;6.95;86.09
63325;SHT31;49451;52.390;13.028;2022-12-20T19:21:56;6.92;86.44
63325;SHT31;49451;52.390;13.028;2022-12-20T19:24:21;6.73;87.44
63325;SHT31;49451;52.390;13.028;2022-12-20T19:26:50;6.67;87.56
63325;SHT31;49451;52.390;13.028;2022-12-20T19:29:15;6.63;87.78
63325;SHT31;49451;52.390;13.028;2022-12-20T19:31:41;6.65;87.94
63325;SHT31;49451;52.390;13.028;2022-12-20T19:34:10;6.63;88.02
63325;SHT31;49451;52.390;13.028;2022-12-20T19:36:37;6.58;88.27
63325;SHT31;49451;52.390;13.028;2022-12-20T19:39:04;6.67;87.89
63325;SHT31;49451;52.390;13.028;2022-12-20T19:41:31;6.67;87.80
63325;SHT31;49451;52.390;13.028;2022-12-20T19:43:58;6.48;88.10
63325;SHT31;49451;52.390;13.028;2022-12-20T19:46:24;6.60;87.50
63325;SHT31;49451;52.390;13.028;2022-12-20T19:48:51;6.53;87.40
63325;SHT31;49451;52.390;13.028;2022-12-20T19:51:18;6.53;87.74
63325;SHT31;49451;52.390;13.028;2022-12-20T19:53:46;6.50;87.53
63325;SHT31;49451;52.390;13.028;2022-12-20T19:56:14;6.51;87.42
63325;SHT31;49451;52.390;13.028;2022-12-20T19:58:41;6.65;87.29
63325;SHT31;49451;52.390;13.028;2022-12-20T20:01:08;6.57;87.11
63325;SHT31;49451;52.390;13.028;2022-12-20T20:03:35;6.46;87.67
63325;SHT31;49451;52.390;13.028;2022-12-20T20:06:01;6.57;87.08
63325;SHT31;49451;52.390;13.028;2022-12-20T20:08:27;6.50;87.03
63325;SHT31;49451;52.390;13.028;2022-12-20T20:10:57;6.51;87.00
63325;SHT31;49451;52.390;13.028;2022-12-20T20:13:23;6.51;87.01
63325;SHT31;49451;52.390;13.028;2022-12-20T20:15:56;6.60;86.94
63325;SHT31;49451;52.390;13.028;2022-12-20T20:18:23;6.51;86.84
63325;SHT31;49451;52.390;13.028;2022-12-20T20:20:53;6.54;86.46
63325;SHT31;49451;52.390;13.028;2022-12-20T20:23:19;6.58;86.40
63325;SHT31;49451;52.390;13.028;2022-12-20T20:25:50;6.74;86.02
63325;SHT31;49451;52.390;13.028;2022-12-20T20:28:16;6.71;86.00
63325;SHT31;49451;52.390;13.028;2022-12-20T20:30:42;6.64;86.26
63325;SHT31;49451;52.390;13.028;2022-12-20T20:33:11;6.61;86.88
63325;SHT31;49451;52.390;13.028;2022-12-20T20:35:38;6.67;86.35
63325;SHT31;49451;52.390;13.028;2022-12-20T20:38:06;6.63;86.49
63325;SHT31;49451;52.390;13.028;2022-12-20T20:40:33;6.55;87.16
63325;SHT31;49451;52.390;13.028;2022-12-20T20:42:59;6.61;87.10
63325;SHT31;49451;52.390;13.028;2022-12-20T20:45:26;6.57;87.24
63325;SHT31;49451;52.390;13.028;2022-12-20T20:47:52;6.58;87.19
63325;SHT31;49451;52.390;13.028;2022-12-20T20:50:21;6.50;87.49
63325;SHT31;49451;52.390;13.028;2022-12-20T20:52:47;6.40;88.00
63325;SHT31;49451;52.390;13.028;2022-12-20T20:55:12;6.38;88.05
63325;SHT31;49451;52.390;13.028;2022-12-20T20:57:38;6.30;88.29
63325;SHT31;49451;52.390;13.028;2022-12-20T21:00:05;6.27;88.34
63325;SHT31;49451;52.390;13.028;2022-12-20T21:02:30;6.32;88.23
63325;SHT31;49451;52.390;13.028;2022-12-20T21:04:56;6.44;87.75
63325;SHT31;49451;52.390;13.028;2022-12-20T21:07:21;6.50;87.65
63325;SHT31;49451;52.390;13.028;2022-12-20T21:09:47;6.46;87.67
63325;SHT31;49451;52.390;13.028;2022-12-20T21:12:12;6.33;88.02
63325;SHT31;49451;52.390;13.028;2022-12-20T21:14:37;6.50;87.86
63325;SHT31;49451;52.390;13.028;2022-12-20T21:17:03;6.36;87.81
63325;SHT31;49451;52.390;13.028;2022-12-20T21:19:31;6.22;88.60
63325;SHT31;49451;52.390;13.028;2022-12-20T21:21:56;6.26;88.26
63325;SHT31;49451;52.390;13.028;2022-12-20T21:24:21;6.26;88.60
63325;SHT31;49451;52.390;13.028;2022-12-20T21:26:48;6.26;88.57
63325;SHT31;49451;52.390;13.028;2022-12-20T21:29:15;6.25;88.66
63325;SHT31;49451;52.390;13.028;2022-12-20T21:31:41;6.25;88.51
63325;SHT31;49451;52.390;13.028;2022-12-20T21:34:06;6.22;88.52